sensor_id;sensor_type;location;lat;lon;timestamp;temperature;humidity
39525;DHT22;25203;50.754;6.978;2022-11-15T00:00:16;12.00;99.90
39525;DHT22;25203;50.754;6.978;2022-11-15T00:02:16;12.00;99.90
39525;DHT22;25203;50.754;6.978;2022-11-15T00:04:17;11.90;99.90
39525;DHT22;25203;50.754;6.978;2022-11-15T00:06:18;11.90;99.90
39525;DHT22;25203;50.754;6.978;2022-11-15T00:08:19;11.90;99.90
39525;DHT22;25203;50.754;6.978;2022-11-15T00:10:19;11.80;99.90
39525;DHT22;25203;50.754;6.978;2022-11-15T00:12:20;11.70;99.90
39525;DHT22;25203;50.754;6.978;2022-11-15T00:14:20;11.60;99.90
39525;DHT22;25203;50.754;6.978;2022-11-15T00:16:21;11.50;99.90
39525;DHT22;25203;50.754;6.978;2022-11-15T00:18:22;11.50;99.90
39525;DHT22;25203;50.754;6.978;2022-11-15T00:20:23;11.40;99.90
39525;DHT22;25203;50.754;6.978;2022-11-15T00:22:23;11.30;99.90
39525;DHT22;25203;50.754;6.978;2022-11-15T00:24:24;11.20;99.90
39525;DHT22;25203;50.754;6.978;2022-11-15T00:26:25;11.10;99.90
39525;DHT22;25203;50.754;6.978;2022-11-15T00:28:26;11.00;99.90
39525;DHT22;25203;50.754;6.978;2022-11-15T00:30:27;10.80;99.90
39525;DHT22;25203;50.754;6.978;2022-11-15T00:32:31;10.70;99.90
39525;DHT22;25203;50.754;6.978;2022-11-15T00:34:32;10.60;99.90
39525;DHT22;25203;50.754;6.978;2022-11-15T00:36:33;10.50;99.90
39525;DHT22;25203;50.754;6.978;2022-11-15T00:38:36;10.40;99.90
39525;DHT22;25203;50.754;6.978;2022-11-15T00:40:37;10.30;99.90
39525;DHT22;25203;50.754;6.978;2022-11-15T00:42:38;10.20;99.90
39525;DHT22;25203;50.754;6.978;2022-11-15T00:44:38;10.20;99.90
39525;DHT22;25203;50.754;6.978;2022-11-15T00:46:39;10.10;99.90
39525;DHT22;25203;50.754;6.978;2022-11-15T00:48:40;10.00;99.90
39525;DHT22;25203;50.754;6.978;2022-11-15T00:50:40;10.00;99.90
39525;DHT22;25203;50.754;6.978;2022-11-15T00:52:41;9.90;99.90
39525;DHT22;25203;50.754;6.978;2022-11-15T00:54:42;9.90;99.90
39525;DHT22;25203;50.754;6.978;2022-11-15T00:56:42;9.90;99.90
39525;DHT22;25203;50.754;6.978;2022-11-15T00:58:43;9.80;99.90
39525;DHT22;25203;50.754;6.978;2022-11-15T01:00:43;9.80;99.90
39525;DHT22;25203;50.754;6.978;2022-11-15T01:02:44;9.90;99.90
39525;DHT22;25203;50.754;6.978;2022-11-15T01:04:45;9.90;99.90
39525;DHT22;25203;50.754;6.978;2022-11-15T01:06:45;9.80;99.90
39525;DHT22;25203;50.754;6.978;2022-11-15T01:08:46;9.80;99.90
39525;DHT22;25203;50.754;6.978;2022-11-15T01:10:47;10.30;99.90
39525;DHT22;25203;50.754;6.978;2022-11-15T01:12:47;10.70;99.90
39525;DHT22;25203;50.754;6.978;2022-11-15T01:14:49;11.10;99.90
39525;DHT22;25203;50.754;6.978;2022-11-15T01:16:50;11.60;99.90
39525;DHT22;25203;50.754;6.978;2022-11-15T01:18:50;11.80;99.90
39525;DHT22;25203;50.754;6.978;2022-11-15T01:20:51;12.00;99.90
39525;DHT22;25203;50.754;6.978;2022-11-15T01:22:51;12.00;99.90
39525;DHT22;25203;50.754;6.978;2022-11-15T01:24:52;12.20;99.90
39525;DHT22;25203;50.754;6.978;2022-11-15T01:26:52;12.20;99.90
39525;DHT22;25203;50.754;6.978;2022-11-15T01:28:53;12.30;99.90
39525;DHT22;25203;50.754;6.978;2022-11-15T01:30:56;12.40;99.90
39525;DHT22;25203;50.754;6.978;2022-11-15T01:32:57;12.40;99.90
39525;DHT22;25203;50.754;6.978;2022-11-15T01:34:58;12.50;99.90
39525;DHT22;25203;50.754;6.978;2022-11-15T01:36:58;12.50;99.90
39525;DHT22;25203;50.754;6.978;2022-11-15T01:38:59;12.40;99.90
39525;DHT22;25203;50.754;6.978;2022-11-15T01:41:00;12.40;99.90
39525;DHT22;25203;50.754;6.978;2022-11-15T01:43:28;12.30;99.90
39525;DHT22;25203;50.754;6.978;2022-11-15T01:45:29;12.30;99.90
39525;DHT22;25203;50.754;6.978;2022-11-15T01:47:37;12.20;99.90
39525;DHT22;25203;50.754;6.978;2022-11-15T01:49:45;12.10;99.90
39525;DHT22;25203;50.754;6.978;2022-11-15T01:51:48;12.10;99.90
39525;DHT22;25203;50.754;6.978;2022-11-15T01:53:50;12.10;99.90
39525;DHT22;25203;50.754;6.978;2022-11-15T01:55:53;12.10;99.90
39525;DHT22;25203;50.754;6.978;2022-11-15T01:57:58;12.10;99.90
39525;DHT22;25203;50.754;6.978;2022-11-15T02:00:01;12.00;99.90
39525;DHT22;25203;50.754;6.978;2022-11-15T02:02:03;12.00;99.90
39525;DHT22;25203;50.754;6.978;2022-11-15T02:04:12;12.00;99.90
39525;DHT22;25203;50.754;6.978;2022-11-15T02:06:13;12.00;99.90
39525;DHT22;25203;50.754;6.978;2022-11-15T02:08:14;12.00;99.90
39525;DHT22;25203;50.754;6.978;2022-11-15T02:10:22;12.00;99.90
39525;DHT22;25203;50.754;6.978;2022-11-15T02:12:24;12.00;99.90
39525;DHT22;25203;50.754;6.978;2022-11-15T02:14:26;12.00;99.90
39525;DHT22;25203;50.754;6.978;2022-11-15T02:16:49;12.00;99.90
39525;DHT22;25203;50.754;6.978;2022-11-15T02:21:34;11.90;99.90
39525;DHT22;25203;50.754;6.978;2022-11-15T02:26:35;11.80;99.90
39525;DHT22;25203;50.754;6.978;2022-11-15T02:34:11;11.80;99.90
39525;DHT22;25203;50.754;6.978;2022-11-15T02:41:10;11.90;99.90
39525;DHT22;25203;50.754;6.978;2022-11-15T02:43:21;11.90;99.90
39525;DHT22;25203;50.754;6.978;2022-11-15T02:45:48;11.90;99.90
39525;DHT22;25203;50.754;6.978;2022-11-15T02:47:54;11.90;99.90
39525;DHT22;25203;50.754;6.978;2022-11-15T02:50:08;11.90;99.90
39525;DHT22;25203;50.754;6.978;2022-11-15T02:52:13;11.80;99.90
39525;DHT22;25203;50.754;6.978;2022-11-15T02:54:25;11.90;99.90
39525;DHT22;25203;50.754;6.978;2022-11-15T02:56:26;11.80;99.90
39525;DHT22;25203;50.754;6.978;2022-11-15T03:03:29;12.00;99.90
39525;DHT22;25203;50.754;6.978;2022-11-15T03:07:54;12.00;99.90
39525;DHT22;25203;50.754;6.978;2022-11-15T03:10:06;12.10;99.90
39525;DHT22;25203;50.754;6.978;2022-11-15T03:14:29;12.20;99.90
39525;DHT22;25203;50.754;6.978;2022-11-15T03:16:38;12.10;99.90
39525;DHT22;25203;50.754;6.978;2022-11-15T03:18:45;12.10;99.90
39525;DHT22;25203;50.754;6.978;2022-11-15T03:20:48;12.00;99.90
39525;DHT22;25203;50.754;6.978;2022-11-15T03:22:50;11.90;99.90
39525;DHT22;25203;50.754;6.978;2022-11-15T03:24:58;11.90;99.90
39525;DHT22;25203;50.754;6.978;2022-11-15T03:27:01;11.80;99.90
39525;DHT22;25203;50.754;6.978;2022-11-15T03:29:21;11.80;99.90
39525;DHT22;25203;50.754;6.978;2022-11-15T03:31:28;11.80;99.90
39525;DHT22;25203;50.754;6.978;2022-11-15T03:33:50;11.80;99.90
39525;DHT22;25203;50.754;6.978;2022-11-15T03:35:53;11.80;99.90
39525;DHT22;25203;50.754;6.978;2022-11-15T03:40:13;11.80;99.90
39525;DHT22;25203;50.754;6.978;2022-11-15T03:42:46;11.90;99.90
39525;DHT22;25203;50.754;6.978;2022-11-15T03:47:03;11.80;99.90
39525;DHT22;25203;50.754;6.978;2022-11-15T03:49:17;11.90;99.90
39525;DHT22;25203;50.754;6.978;2022-11-15T03:51:20;11.90;99.90
39525;DHT22;25203;50.754;6.978;2022-11-15T03:53:21;11.90;99.90
39525;DHT22;25203;50.754;6.978;2022-11-15T03:55:22;11.90;99.90
39525;DHT22;25203;50.754;6.978;2022-11-15T03:57:22;11.90;99.90
39525;DHT22;25203;50.754;6.978;2022-11-15T03:59:23;12.00;99.90
39525;DHT22;25203;50.754;6.978;2022-11-15T04:01:24;12.00;99.90
39525;DHT22;25203;50.754;6.978;2022-11-15T04:03:25;12.10;99.90
39525;DHT22;25203;50.754;6.978;2022-11-15T04:05:26;12.20;99.90
39525;DHT22;25203;50.754;6.978;2022-11-15T04:07:26;12.40;99.90
39525;DHT22;25203;50.754;6.978;2022-11-15T04:09:27;12.40;99.90
39525;DHT22;25203;50.754;6.978;2022-11-15T04:11:27;12.50;99.90
39525;DHT22;25203;50.754;6.978;2022-11-15T04:13:28;12.60;99.90
39525;DHT22;25203;50.754;6.978;2022-11-15T04:15:29;12.60;99.90
39525;DHT22;25203;50.754;6.978;2022-11-15T04:17:30;12.60;99.90
39525;DHT22;25203;50.754;6.978;2022-11-15T04:19:30;12.60;99.90
39525;DHT22;25203;50.754;6.978;2022-11-15T04:22:07;12.50;99.90
39525;DHT22;25203;50.754;6.978;2022-11-15T04:24:27;12.50;99.90
39525;DHT22;25203;50.754;6.978;2022-11-15T04:26:27;12.50;99.90
39525;DHT22;25203;50.754;6.978;2022-11-15T04:28:28;12.50;99.90
39525;DHT22;25203;50.754;6.978;2022-11-15T04:30:28;12.50;99.90
39525;DHT22;25203;50.754;6.978;2022-11-15T04:32:29;12.50;99.90
39525;DHT22;25203;50.754;6.978;2022-11-15T04:34:30;12.50;99.90
39525;DHT22;25203;50.754;6.978;2022-11-15T04:36:31;12.50;99.90
39525;DHT22;25203;50.754;6.978;2022-11-15T04:38:49;12.50;99.90
39525;DHT22;25203;50.754;6.978;2022-11-15T04:40:50;12.40;99.90
39525;DHT22;25203;50.754;6.978;2022-11-15T04:42:51;12.40;99.90
39525;DHT22;25203;50.754;6.978;2022-11-15T04:44:51;12.40;99.90
39525;DHT22;25203;50.754;6.978;2022-11-15T04:46:52;12.40;99.90
39525;DHT22;25203;50.754;6.978;2022-11-15T04:48:53;12.40;99.90
39525;DHT22;25203;50.754;6.978;2022-11-15T04:50:54;12.40;99.90
39525;DHT22;25203;50.754;6.978;2022-11-15T04:52:54;12.40;99.90
39525;DHT22;25203;50.754;6.978;2022-11-15T04:54:55;12.40;99.90
39525;DHT22;25203;50.754;6.978;2022-11-15T04:56:56;12.50;99.90
39525;DHT22;25203;50.754;6.978;2022-11-15T04:58:56;12.50;99.90
39525;DHT22;25203;50.754;6.978;2022-11-15T05:00:57;12.50;99.90
39525;DHT22;25203;50.754;6.978;2022-11-15T05:02:57;12.60;99.90
39525;DHT22;25203;50.754;6.978;2022-11-15T05:05:16;12.70;99.90
39525;DHT22;25203;50.754;6.978;2022-11-15T05:07:17;12.80;99.90
39525;DHT22;25203;50.754;6.978;2022-11-15T05:09:18;12.80;99.90
39525;DHT22;25203;50.754;6.978;2022-11-15T05:11:19;12.70;99.90
39525;DHT22;25203;50.754;6.978;2022-11-15T05:13:21;12.70;99.90
39525;DHT22;25203;50.754;6.978;2022-11-15T05:15:21;12.70;99.90
39525;DHT22;25203;50.754;6.978;2022-11-15T05:17:22;12.60;99.90
39525;DHT22;25203;50.754;6.978;2022-11-15T05:19:23;12.60;99.90
39525;DHT22;25203;50.754;6.978;2022-11-15T05:21:23;12.50;99.90
39525;DHT22;25203;50.754;6.978;2022-11-15T05:23:24;12.50;99.90
39525;DHT22;25203;50.754;6.978;2022-11-15T05:25:25;12.40;99.90
39525;DHT22;25203;50.754;6.978;2022-11-15T05:27:25;12.40;99.90
39525;DHT22;25203;50.754;6.978;2022-11-15T05:29:26;12.40;99.90
39525;DHT22;25203;50.754;6.978;2022-11-15T05:31:27;12.30;99.90
39525;DHT22;25203;50.754;6.978;2022-11-15T05:33:27;12.20;99.90
39525;DHT22;25203;50.754;6.978;2022-11-15T05:35:39;12.20;99.90
39525;DHT22;25203;50.754;6.978;2022-11-15T05:37:40;12.10;99.90
39525;DHT22;25203;50.754;6.978;2022-11-15T05:39:41;12.10;99.90
39525;DHT22;25203;50.754;6.978;2022-11-15T05:41:49;12.00;99.90
39525;DHT22;25203;50.754;6.978;2022-11-15T05:43:52;11.80;99.90
39525;DHT22;25203;50.754;6.978;2022-11-15T05:45:53;11.80;99.90
39525;DHT22;25203;50.754;6.978;2022-11-15T05:47:56;11.80;99.90
39525;DHT22;25203;50.754;6.978;2022-11-15T05:49:57;11.70;99.90
39525;DHT22;25203;50.754;6.978;2022-11-15T05:51:58;11.80;99.90
39525;DHT22;25203;50.754;6.978;2022-11-15T05:54:00;11.70;99.90
39525;DHT22;25203;50.754;6.978;2022-11-15T05:56:03;11.80;99.90
39525;DHT22;25203;50.754;6.978;2022-11-15T05:58:04;11.80;99.90
39525;DHT22;25203;50.754;6.978;2022-11-15T06:00:05;11.80;99.90
39525;DHT22;25203;50.754;6.978;2022-11-15T06:02:06;11.80;99.90
39525;DHT22;25203;50.754;6.978;2022-11-15T06:04:07;11.80;99.90
39525;DHT22;25203;50.754;6.978;2022-11-15T06:06:08;11.70;99.90
39525;DHT22;25203;50.754;6.978;2022-11-15T06:08:08;11.70;99.90
39525;DHT22;25203;50.754;6.978;2022-11-15T06:10:09;11.70;99.90
39525;DHT22;25203;50.754;6.978;2022-11-15T06:12:09;11.60;99.90
39525;DHT22;25203;50.754;6.978;2022-11-15T06:14:10;11.60;99.90
39525;DHT22;25203;50.754;6.978;2022-11-15T06:16:10;11.60;99.90
39525;DHT22;25203;50.754;6.978;2022-11-15T06:18:11;11.50;99.90
39525;DHT22;25203;50.754;6.978;2022-11-15T06:20:12;11.40;99.90
39525;DHT22;25203;50.754;6.978;2022-11-15T06:22:12;11.40;99.90
39525;DHT22;25203;50.754;6.978;2022-11-15T06:24:13;11.40;99.90
39525;DHT22;25203;50.754;6.978;2022-11-15T06:26:13;11.40;99.90
39525;DHT22;25203;50.754;6.978;2022-11-15T06:28:14;11.40;99.90
39525;DHT22;25203;50.754;6.978;2022-11-15T06:30:15;11.40;99.90
39525;DHT22;25203;50.754;6.978;2022-11-15T06:32:15;11.40;99.90
39525;DHT22;25203;50.754;6.978;2022-11-15T06:34:16;11.40;99.90
39525;DHT22;25203;50.754;6.978;2022-11-15T06:36:17;11.40;99.90
39525;DHT22;25203;50.754;6.978;2022-11-15T06:38:17;11.30;99.90
39525;DHT22;25203;50.754;6.978;2022-11-15T06:40:18;11.10;99.90
39525;DHT22;25203;50.754;6.978;2022-11-15T06:42:19;11.00;99.90
39525;DHT22;25203;50.754;6.978;2022-11-15T06:44:19;11.00;99.90
39525;DHT22;25203;50.754;6.978;2022-11-15T06:46:20;11.00;99.90
39525;DHT22;25203;50.754;6.978;2022-11-15T06:48:20;11.00;99.90
39525;DHT22;25203;50.754;6.978;2022-11-15T06:50:21;11.00;99.90
39525;DHT22;25203;50.754;6.978;2022-11-15T06:52:22;11.00;99.90
39525;DHT22;25203;50.754;6.978;2022-11-15T06:54:22;10.90;99.90
39525;DHT22;25203;50.754;6.978;2022-11-15T06:56:23;10.90;99.90
39525;DHT22;25203;50.754;6.978;2022-11-15T06:58:23;10.90;99.90
39525;DHT22;25203;50.754;6.978;2022-11-15T07:00:24;10.90;99.90
39525;DHT22;25203;50.754;6.978;2022-11-15T07:02:25;10.80;99.90
39525;DHT22;25203;50.754;6.978;2022-11-15T07:04:25;10.80;99.90
39525;DHT22;25203;50.754;6.978;2022-11-15T07:06:26;10.80;99.90
39525;DHT22;25203;50.754;6.978;2022-11-15T07:08:27;10.70;99.90
39525;DHT22;25203;50.754;6.978;2022-11-15T07:10:29;10.60;99.90
39525;DHT22;25203;50.754;6.978;2022-11-15T07:12:29;10.50;99.90
39525;DHT22;25203;50.754;6.978;2022-11-15T07:14:30;10.50;99.90
39525;DHT22;25203;50.754;6.978;2022-11-15T07:16:31;10.30;99.90
39525;DHT22;25203;50.754;6.978;2022-11-15T07:18:34;10.20;99.90
39525;DHT22;25203;50.754;6.978;2022-11-15T07:20:35;10.20;99.90
39525;DHT22;25203;50.754;6.978;2022-11-15T07:22:35;10.20;99.90
39525;DHT22;25203;50.754;6.978;2022-11-15T07:24:36;10.20;99.90
39525;DHT22;25203;50.754;6.978;2022-11-15T07:26:37;10.30;99.90
39525;DHT22;25203;50.754;6.978;2022-11-15T07:28:37;10.30;99.90
39525;DHT22;25203;50.754;6.978;2022-11-15T07:30:38;10.30;99.90
39525;DHT22;25203;50.754;6.978;2022-11-15T07:32:39;10.20;99.90
39525;DHT22;25203;50.754;6.978;2022-11-15T07:34:39;10.30;99.90
39525;DHT22;25203;50.754;6.978;2022-11-15T07:36:40;10.50;99.90
39525;DHT22;25203;50.754;6.978;2022-11-15T07:38:40;10.50;99.90
39525;DHT22;25203;50.754;6.978;2022-11-15T07:40:41;10.50;99.90
39525;DHT22;25203;50.754;6.978;2022-11-15T07:42:42;10.60;99.90
39525;DHT22;25203;50.754;6.978;2022-11-15T07:44:54;10.70;99.90
39525;DHT22;25203;50.754;6.978;2022-11-15T07:46:55;10.80;99.90
39525;DHT22;25203;50.754;6.978;2022-11-15T07:48:55;11.00;99.90
39525;DHT22;25203;50.754;6.978;2022-11-15T07:50:56;11.30;99.90
39525;DHT22;25203;50.754;6.978;2022-11-15T07:52:58;11.50;99.90
39525;DHT22;25203;50.754;6.978;2022-11-15T07:54:59;11.80;99.90
39525;DHT22;25203;50.754;6.978;2022-11-15T07:57:00;12.00;99.90
39525;DHT22;25203;50.754;6.978;2022-11-15T07:59:00;12.10;99.90
39525;DHT22;25203;50.754;6.978;2022-11-15T08:01:05;12.30;99.90
39525;DHT22;25203;50.754;6.978;2022-11-15T08:03:08;12.50;99.90
39525;DHT22;25203;50.754;6.978;2022-11-15T08:05:09;12.60;99.90
39525;DHT22;25203;50.754;6.978;2022-11-15T08:07:10;12.70;99.90
39525;DHT22;25203;50.754;6.978;2022-11-15T08:09:10;12.60;99.90
39525;DHT22;25203;50.754;6.978;2022-11-15T08:11:11;12.70;99.90
39525;DHT22;25203;50.754;6.978;2022-11-15T08:13:12;12.70;99.90
39525;DHT22;25203;50.754;6.978;2022-11-15T08:15:13;12.60;99.90
39525;DHT22;25203;50.754;6.978;2022-11-15T08:17:14;12.60;99.90
39525;DHT22;25203;50.754;6.978;2022-11-15T08:19:14;12.70;99.90
39525;DHT22;25203;50.754;6.978;2022-11-15T08:21:18;12.80;99.90
39525;DHT22;25203;50.754;6.978;2022-11-15T08:23:20;12.90;99.90
39525;DHT22;25203;50.754;6.978;2022-11-15T08:25:20;13.10;99.90
39525;DHT22;25203;50.754;6.978;2022-11-15T08:27:21;13.20;99.90
39525;DHT22;25203;50.754;6.978;2022-11-15T08:29:22;13.20;99.90
39525;DHT22;25203;50.754;6.978;2022-11-15T08:31:23;13.20;99.90
39525;DHT22;25203;50.754;6.978;2022-11-15T08:33:24;13.20;99.90
39525;DHT22;25203;50.754;6.978;2022-11-15T08:35:25;13.30;99.90
39525;DHT22;25203;50.754;6.978;2022-11-15T08:37:26;13.40;99.90
39525;DHT22;25203;50.754;6.978;2022-11-15T08:39:26;13.50;99.90
39525;DHT22;25203;50.754;6.978;2022-11-15T08:41:33;13.60;99.90
39525;DHT22;25203;50.754;6.978;2022-11-15T08:43:35;13.70;99.90
39525;DHT22;25203;50.754;6.978;2022-11-15T08:45:36;13.90;99.90
39525;DHT22;25203;50.754;6.978;2022-11-15T08:47:36;14.10;99.90
39525;DHT22;25203;50.754;6.978;2022-11-15T08:49:37;14.10;99.90
39525;DHT22;25203;50.754;6.978;2022-11-15T08:51:37;14.40;99.90
39525;DHT22;25203;50.754;6.978;2022-11-15T08:53:38;14.60;99.90
39525;DHT22;25203;50.754;6.978;2022-11-15T08:55:40;14.70;99.90
39525;DHT22;25203;50.754;6.978;2022-11-15T08:57:41;15.10;99.90
39525;DHT22;25203;50.754;6.978;2022-11-15T08:59:41;15.20;99.90
39525;DHT22;25203;50.754;6.978;2022-11-15T09:01:42;15.70;99.90
39525;DHT22;25203;50.754;6.978;2022-11-15T09:03:43;16.20;98.90
39525;DHT22;25203;50.754;6.978;2022-11-15T09:05:43;16.20;98.70
39525;DHT22;25203;50.754;6.978;2022-11-15T09:07:44;16.60;98.20
39525;DHT22;25203;50.754;6.978;2022-11-15T09:09:45;16.70;97.10
39525;DHT22;25203;50.754;6.978;2022-11-15T09:11:45;16.30;97.00
39525;DHT22;25203;50.754;6.978;2022-11-15T09:13:46;15.80;97.70
39525;DHT22;25203;50.754;6.978;2022-11-15T09:15:46;15.70;98.90
39525;DHT22;25203;50.754;6.978;2022-11-15T09:17:47;16.00;99.00
39525;DHT22;25203;50.754;6.978;2022-11-15T09:19:47;16.90;96.90
39525;DHT22;25203;50.754;6.978;2022-11-15T09:21:48;17.30;94.70
39525;DHT22;25203;50.754;6.978;2022-11-15T09:23:52;17.90;94.60
39525;DHT22;25203;50.754;6.978;2022-11-15T09:26:01;18.80;93.70
39525;DHT22;25203;50.754;6.978;2022-11-15T09:28:06;19.40;91.80
39525;DHT22;25203;50.754;6.978;2022-11-15T09:30:07;19.20;91.20
39525;DHT22;25203;50.754;6.978;2022-11-15T09:32:08;19.30;90.70
39525;DHT22;25203;50.754;6.978;2022-11-15T09:34:09;19.50;89.00
39525;DHT22;25203;50.754;6.978;2022-11-15T09:36:10;19.00;90.30
39525;DHT22;25203;50.754;6.978;2022-11-15T09:38:11;18.80;90.30
39525;DHT22;25203;50.754;6.978;2022-11-15T09:40:13;18.50;90.80
39525;DHT22;25203;50.754;6.978;2022-11-15T09:49:44;18.40;90.10
39525;DHT22;25203;50.754;6.978;2022-11-15T09:51:48;18.00;91.30
39525;DHT22;25203;50.754;6.978;2022-11-15T09:56:18;18.00;91.20
39525;DHT22;25203;50.754;6.978;2022-11-15T09:58:36;17.80;91.70
39525;DHT22;25203;50.754;6.978;2022-11-15T10:00:45;18.50;91.00
39525;DHT22;25203;50.754;6.978;2022-11-15T10:04:49;18.80;87.50
39525;DHT22;25203;50.754;6.978;2022-11-15T10:07:01;18.60;89.10
39525;DHT22;25203;50.754;6.978;2022-11-15T10:11:32;19.20;86.90
39525;DHT22;25203;50.754;6.978;2022-11-15T10:13:39;19.40;82.90
39525;DHT22;25203;50.754;6.978;2022-11-15T10:15:43;19.30;82.10
39525;DHT22;25203;50.754;6.978;2022-11-15T10:20:25;19.50;79.60
39525;DHT22;25203;50.754;6.978;2022-11-15T10:24:36;19.40;76.80
39525;DHT22;25203;50.754;6.978;2022-11-15T10:26:43;19.70;77.20
39525;DHT22;25203;50.754;6.978;2022-11-15T10:28:46;20.40;75.10
39525;DHT22;25203;50.754;6.978;2022-11-15T10:30:55;20.30;73.90
39525;DHT22;25203;50.754;6.978;2022-11-15T10:32:55;20.30;73.10
39525;DHT22;25203;50.754;6.978;2022-11-15T10:34:56;20.40;71.20
39525;DHT22;25203;50.754;6.978;2022-11-15T10:36:59;20.60;69.20
39525;DHT22;25203;50.754;6.978;2022-11-15T10:39:00;20.60;70.30
39525;DHT22;25203;50.754;6.978;2022-11-15T10:41:07;20.20;70.50
39525;DHT22;25203;50.754;6.978;2022-11-15T10:43:18;19.90;71.60
39525;DHT22;25203;50.754;6.978;2022-11-15T10:45:28;19.50;72.10
39525;DHT22;25203;50.754;6.978;2022-11-15T10:47:30;19.50;72.60
39525;DHT22;25203;50.754;6.978;2022-11-15T10:49:33;18.80;75.20
39525;DHT22;25203;50.754;6.978;2022-11-15T10:51:58;19.00;74.90
39525;DHT22;25203;50.754;6.978;2022-11-15T10:54:00;18.50;75.50
39525;DHT22;25203;50.754;6.978;2022-11-15T10:56:05;18.00;77.70
39525;DHT22;25203;50.754;6.978;2022-11-15T11:00:34;18.00;77.90
39525;DHT22;25203;50.754;6.978;2022-11-15T11:07:35;17.10;80.60
39525;DHT22;25203;50.754;6.978;2022-11-15T11:09:37;16.30;83.80
39525;DHT22;25203;50.754;6.978;2022-11-15T11:11:49;15.80;86.80
39525;DHT22;25203;50.754;6.978;2022-11-15T11:13:50;15.10;90.60
39525;DHT22;25203;50.754;6.978;2022-11-15T11:18:25;14.40;93.30
39525;DHT22;25203;50.754;6.978;2022-11-15T11:20:38;14.20;94.30
39525;DHT22;25203;50.754;6.978;2022-11-15T11:22:48;14.10;94.90
39525;DHT22;25203;50.754;6.978;2022-11-15T11:24:56;14.00;95.90
39525;DHT22;25203;50.754;6.978;2022-11-15T11:34:15;14.60;96.00
39525;DHT22;25203;50.754;6.978;2022-11-15T11:38:56;14.80;96.60
39525;DHT22;25203;50.754;6.978;2022-11-15T11:43:46;14.90;96.00
39525;DHT22;25203;50.754;6.978;2022-11-15T11:45:55;14.80;96.60
39525;DHT22;25203;50.754;6.978;2022-11-15T11:48:24;14.60;96.20
39525;DHT22;25203;50.754;6.978;2022-11-15T11:50:28;14.40;97.20
39525;DHT22;25203;50.754;6.978;2022-11-15T11:52:34;14.20;97.80
39525;DHT22;25203;50.754;6.978;2022-11-15T11:56:50;14.20;97.40
39525;DHT22;25203;50.754;6.978;2022-11-15T11:58:55;14.30;97.00
39525;DHT22;25203;50.754;6.978;2022-11-15T12:01:08;14.40;98.20
39525;DHT22;25203;50.754;6.978;2022-11-15T12:03:22;14.60;98.20
39525;DHT22;25203;50.754;6.978;2022-11-15T12:07:41;14.70;97.60
39525;DHT22;25203;50.754;6.978;2022-11-15T12:12:44;14.80;97.10
39525;DHT22;25203;50.754;6.978;2022-11-15T12:15:16;14.90;97.00
39525;DHT22;25203;50.754;6.978;2022-11-15T12:17:23;14.80;97.60
39525;DHT22;25203;50.754;6.978;2022-11-15T12:19:24;14.80;98.00
39525;DHT22;25203;50.754;6.978;2022-11-15T12:23:45;14.70;97.20
39525;DHT22;25203;50.754;6.978;2022-11-15T12:28:11;14.80;97.30
39525;DHT22;25203;50.754;6.978;2022-11-15T12:30:18;14.70;98.00
39525;DHT22;25203;50.754;6.978;2022-11-15T12:32:33;14.60;97.70
39525;DHT22;25203;50.754;6.978;2022-11-15T12:34:40;14.60;98.60
39525;DHT22;25203;50.754;6.978;2022-11-15T12:36:43;14.50;98.70
39525;DHT22;25203;50.754;6.978;2022-11-15T12:38:57;14.50;98.80
39525;DHT22;25203;50.754;6.978;2022-11-15T12:41:15;14.60;99.20
39525;DHT22;25203;50.754;6.978;2022-11-15T12:45:39;14.70;98.90
39525;DHT22;25203;50.754;6.978;2022-11-15T12:47:40;14.70;98.70
39525;DHT22;25203;50.754;6.978;2022-11-15T12:53:47;14.60;99.40
39525;DHT22;25203;50.754;6.978;2022-11-15T12:58:43;14.40;99.90
39525;DHT22;25203;50.754;6.978;2022-11-15T13:00:46;14.40;99.90
39525;DHT22;25203;50.754;6.978;2022-11-15T13:02:47;14.40;99.30
39525;DHT22;25203;50.754;6.978;2022-11-15T13:04:50;14.50;99.80
39525;DHT22;25203;50.754;6.978;2022-11-15T13:08:59;14.40;99.70
39525;DHT22;25203;50.754;6.978;2022-11-15T13:13:44;14.40;99.90
39525;DHT22;25203;50.754;6.978;2022-11-15T13:15:53;14.30;99.90
39525;DHT22;25203;50.754;6.978;2022-11-15T13:17:56;14.40;99.90
39525;DHT22;25203;50.754;6.978;2022-11-15T13:22:10;14.30;99.90
39525;DHT22;25203;50.754;6.978;2022-11-15T13:24:29;14.30;99.90
39525;DHT22;25203;50.754;6.978;2022-11-15T13:26:31;14.30;99.90
39525;DHT22;25203;50.754;6.978;2022-11-15T13:30:32;14.30;99.90
39525;DHT22;25203;50.754;6.978;2022-11-15T13:32:33;14.30;99.90
39525;DHT22;25203;50.754;6.978;2022-11-15T13:34:33;14.30;99.90
39525;DHT22;25203;50.754;6.978;2022-11-15T13:36:36;14.30;99.90
39525;DHT22;25203;50.754;6.978;2022-11-15T13:38:38;14.30;99.90
39525;DHT22;25203;50.754;6.978;2022-11-15T13:40:39;14.30;99.90
39525;DHT22;25203;50.754;6.978;2022-11-15T13:42:39;14.30;99.90
39525;DHT22;25203;50.754;6.978;2022-11-15T13:44:57;14.20;99.90
39525;DHT22;25203;50.754;6.978;2022-11-15T13:47:07;14.20;99.90
39525;DHT22;25203;50.754;6.978;2022-11-15T13:49:12;14.10;99.90
39525;DHT22;25203;50.754;6.978;2022-11-15T13:51:22;14.10;99.90
39525;DHT22;25203;50.754;6.978;2022-11-15T13:53:25;14.10;99.90
39525;DHT22;25203;50.754;6.978;2022-11-15T13:55:26;14.10;99.90
39525;DHT22;25203;50.754;6.978;2022-11-15T13:59:59;14.10;99.90
39525;DHT22;25203;50.754;6.978;2022-11-15T14:02:25;14.10;99.90
39525;DHT22;25203;50.754;6.978;2022-11-15T14:04:27;14.10;99.90
39525;DHT22;25203;50.754;6.978;2022-11-15T14:06:34;14.10;99.90
39525;DHT22;25203;50.754;6.978;2022-11-15T14:11:16;14.20;99.90
39525;DHT22;25203;50.754;6.978;2022-11-15T14:13:30;14.20;99.90
39525;DHT22;25203;50.754;6.978;2022-11-15T14:15:34;14.20;99.90
39525;DHT22;25203;50.754;6.978;2022-11-15T14:17:36;14.20;99.90
39525;DHT22;25203;50.754;6.978;2022-11-15T14:19:39;14.30;99.90
39525;DHT22;25203;50.754;6.978;2022-11-15T14:24:18;14.30;99.90
39525;DHT22;25203;50.754;6.978;2022-11-15T14:26:31;14.20;99.90
39525;DHT22;25203;50.754;6.978;2022-11-15T14:28:33;14.10;99.90
39525;DHT22;25203;50.754;6.978;2022-11-15T14:30:39;14.10;99.90
39525;DHT22;25203;50.754;6.978;2022-11-15T14:32:45;14.10;99.90
39525;DHT22;25203;50.754;6.978;2022-11-15T14:34:48;14.10;99.90
39525;DHT22;25203;50.754;6.978;2022-11-15T14:36:49;14.10;99.90
39525;DHT22;25203;50.754;6.978;2022-11-15T14:38:49;14.10;99.90
39525;DHT22;25203;50.754;6.978;2022-11-15T14:40:50;14.10;99.90
39525;DHT22;25203;50.754;6.978;2022-11-15T14:42:51;14.10;99.90
39525;DHT22;25203;50.754;6.978;2022-11-15T14:44:52;14.10;99.90
39525;DHT22;25203;50.754;6.978;2022-11-15T14:46:52;14.10;99.90
39525;DHT22;25203;50.754;6.978;2022-11-15T14:48:53;14.00;99.90